Latest Weather Observations for Urandangi

IDQ60801

Issued at 12:13 pm EST Saturday 1 October 2022 (issued every 10 minutes, with the page automatically refreshed every 10 minutes)

About weather observations | Map of weather stations | Latest weather observations for QLD | Other Formats
Station Details ID: 037058 Name: URANDANGI AERODROME Lat: -21.60 Lon: 138.37 Height: 178.6 m
Data from the previous 72 hours. | See also: Recent months at Urandangi
Date/Time
EST
Temp
°C
App
Temp
°C
Dew
Point
°C
Rel
Hum
%
Delta-T
°C
Wind Press
QNH
hPa
Press
MSL
hPa
Rain since
9am
mm
Dir  Spd
km/h
Gust
km/h
Spd
kts
Gust
kts
01/12:00pm 28.9 24.3 1.4 17 13.5 SE 15 28 8 15 1015.0 1014.0 0.0
01/11:30am 28.8 23.9 2.1 18 13.2 ESE 17 26 9 14 1015.6 1014.6 0.0
01/11:00am 28.3 23.1 2.5 19 12.8 SE 19 30 10 16 1016.1 1015.1 0.0
01/10:30am 25.8 21.0 2.5 22 11.4 SE 17 26 9 14 1016.3 1015.4 0.0
01/10:00am 24.6 19.8 2.7 24 10.6 SE 17 22 9 12 1016.3 1015.4 0.0
01/09:30am 22.9 18.4 2.4 26 9.8 SE 15 20 8 11 1016.6 1016.0 0.0
01/09:00am 21.6 17.8 1.8 27 9.2 SE 11 17 6 9 1016.8 1016.2 0.0
01/08:30am 20.6 16.4 1.5 28 8.8 SE 13 19 7 10 1016.7 1016.1 0.0
01/08:00am 19.8 15.9 1.3 29 8.4 SE 11 15 6 8 1016.3 1015.6 0.0
01/07:30am 19.1 16.1 1.1 30 8.1 SSE 6 9 3 5 1016.5 1015.8 0.0
01/07:00am 18.6 15.5 1.2 31 7.8 SSE 7 9 4 5 1015.9 1015.2 0.0
01/06:30am 18.6 15.1 1.2 31 7.9 SE 9 13 5 7 1015.4 1014.7 0.0
01/06:00am 18.3 14.7 0.9 31 7.8 SSE 9 11 5 6 1015.5 1014.8 0.0
01/05:30am 18.3 14.4 0.9 31 7.8 SSE 11 13 6 7 1015.2 1014.5 0.0
01/05:00am 18.1 14.6 1.2 32 7.6 S 9 13 5 7 1014.9 1014.2 0.0
01/04:30am 17.2 14.1 1.2 34 7.1 SSE 7 9 4 5 1014.7 1014.0 0.0
01/04:00am 17.5 14.4 1.1 33 7.3 SSE 7 9 4 5 1014.6 1013.9 0.0
01/03:30am 18.0 14.5 1.1 32 7.6 SSE 9 11 5 6 1014.8 1014.1 0.0
01/03:00am 18.4 15.2 1.0 31 7.8 S 7 9 4 5 1014.8 1014.1 0.0
01/02:30am 18.3 15.1 0.9 31 7.8 SSE 7 9 4 5 1014.9 1014.2 0.0
01/02:00am 18.9 15.7 1.0 30 8.1 SSE 7 9 4 5 1015.1 1014.4 0.0
01/01:30am 18.4 14.9 1.0 31 7.8 SE 9 9 5 5 1015.4 1014.7 0.0
01/01:00am 18.4 16.0 1.9 33 7.5 SE 4 6 2 3 1016.0 1015.3 0.0
01/12:30am 18.0 15.4 1.1 32 7.6 SE 4 6 2 3 1015.9 1015.2 0.0
01/12:00am 17.9 14.8 0.1 30 7.8 SE 6 7 3 4 1015.6 1014.9 0.0
 
Date/Time
EST
Temp
°C
App
Temp
°C
Dew
Point
°C
Rel
Hum
%
Delta-T
°C
Wind Press
QNH
hPa
Press
MSL
hPa
Rain since
9am
mm
Dir  Spd
km/h
Gust
km/h
Spd
kts
Gust
kts
30/11:30pm 18.1 15.3 -0.2 29 8.0 SSE 4 6 2 3 1016.1 1015.4 0.0
30/11:00pm 19.0 15.8 -0.4 27 8.5 ESE 6 7 3 4 1016.1 1015.4 0.0
30/10:30pm 19.4 16.5 -1.1 25 8.9 SSE 4 6 2 3 1016.6 1016.0 0.0
30/10:00pm 20.6 16.7 -1.2 23 9.5 SSE 9 9 5 5 1016.4 1015.7 0.0
30/09:30pm 22.2 18.3 -1.8 20 10.5 SSE 9 11 5 6 1016.3 1015.6 0.0
30/09:00pm 22.7 18.7 -2.1 19 10.8 SSE 9 11 5 6 1016.1 1015.4 0.0
30/08:30pm 23.0 18.7 -1.8 19 10.9 S 11 11 6 6 1015.8 1015.1 0.0
30/08:00pm 23.6 19.2 -2.1 18 11.3 S 11 13 6 7 1015.9 1015.2 0.0
30/07:30pm 24.6 20.5 -2.9 16 12.1 SSE 9 11 5 6 1015.5 1014.8 0.0
30/07:00pm 26.0 21.6 -2.6 15 12.7 SSE 11 15 6 8 1015.2 1014.5 0.0
30/06:30pm 28.2 23.2 -3.9 12 14.2 SSE 13 19 7 10 1014.5 1013.8 0.0
30/06:00pm 29.5 24.2 -4.0 11 15.0 SSE 15 24 8 13 1014.4 1013.7 0.0
30/05:30pm 30.3 24.5 -4.7 10 15.6 SSE 17 28 9 15 1014.0 1013.3 0.0
30/05:00pm 30.9 24.7 -3.0 11 15.6 SE 20 30 11 16 1014.0 1013.3 0.0
30/04:30pm 30.7 24.4 -4.4 10 15.7 SE 20 28 11 15 1014.0 1013.3 0.0
30/04:00pm 30.7 25.1 -3.1 11 15.5 SE 17 26 9 14 1013.9 1013.2 0.0
30/03:30pm 30.7 25.1 -3.1 11 15.5 SE 17 28 9 15 1014.4 1013.7 0.0
30/03:00pm 30.6 24.6 -3.2 11 15.5 SE 19 30 10 16 1014.8 1014.1 0.0
30/02:30pm 30.3 24.4 -2.2 12 15.1 SSE 19 30 10 16 1015.1 1014.4 0.0
30/02:00pm 30.4 25.4 -1.1 13 14.9 ESE 15 28 8 15 1015.5 1014.8 0.0
30/01:30pm 29.6 24.3 -0.7 14 14.4 SE 17 32 9 17 1016.0 1015.3 0.0
30/01:00pm 29.7 24.0 0.3 15 14.2 ESE 20 30 11 16 1016.5 1015.8 0.0
30/12:30pm 28.7 23.0 -0.5 15 13.8 SE 19 32 10 17 1017.1 1016.5 0.0
30/12:00pm 28.8 23.1 -0.4 15 13.8 SE 19 35 10 19 1017.9 1017.2 0.0
30/11:30am 28.2 23.0 0.0 16 13.4 SE 17 28 9 15 1018.2 1017.5 0.0
30/11:00am 27.9 22.2 0.6 17 13.1 SE 20 30 11 16 1018.8 1018.1 0.0
30/10:30am 27.3 20.6 1.7 19 12.5 ESE 26 35 14 19 1019.2 1018.5 0.0
30/10:00am 25.8 20.0 2.5 22 11.4 ESE 22 32 12 17 1020.0 1019.3 0.0
30/09:30am 24.6 19.3 2.1 23 10.8 ESE 19 28 10 15 1020.5 1019.8 0.0
30/09:00am 22.6 17.8 2.7 27 9.5 SE 17 22 9 12 1020.4 1019.7 0.0
30/08:30am 19.9 15.0 2.3 31 8.2 SE 17 20 9 11 1020.1 1019.4 0.0
30/08:00am 17.6 13.5 2.0 35 7.1 SE 13 19 7 10 1019.6 1018.9 0.0
30/07:30am 14.4 11.6 2.3 44 5.4 SSE 6 11 3 6 1019.4 1018.7 0.0
30/07:00am 10.2 7.2 2.3 58 3.4 SSE 7 9 4 5 1019.0 1018.3 0.0
30/06:30am 9.1 6.6 1.8 60 3.1 SSE 4 6 2 3 1018.8 1018.1 0.0
30/06:00am 9.0 6.0 1.7 60 3.0 SSE 7 7 4 4 1018.3 1017.6 0.0
30/05:30am 9.3 6.4 1.5 58 3.3 SE 6 6 3 3 1018.0 1017.3 0.0
30/05:00am 9.0 5.6 1.9 61 3.0 SE 9 9 5 5 1018.0 1017.3 0.0
30/04:30am 9.6 6.8 1.8 58 3.3 SE 6 7 3 4 1017.9 1017.2 0.0
30/04:00am 10.5 7.7 1.9 55 3.7 SE 6 7 3 4 1017.9 1017.2 0.0
30/03:30am 10.9 7.9 1.7 53 3.9 SE 7 9 4 5 1017.9 1017.2 0.0
30/03:00am 10.7 7.3 1.8 54 3.8 SE 9 9 5 5 1018.2 1017.5 0.0
30/02:30am 10.8 7.8 2.1 55 3.7 SE 7 9 4 5 1018.3 1017.6 0.0
30/02:00am 12.3 9.3 2.2 50 4.4 SE 7 7 4 4 1018.6 1017.9 0.0
30/01:30am 13.5 10.7 2.1 46 5.0 SSE 6 6 3 3 1018.9 1018.2 0.0
30/01:00am 13.3 10.3 1.9 46 5.0 SSE 7 9 4 5 1019.0 1018.3 0.0
30/12:30am 13.7 10.9 2.0 45 5.1 SE 6 7 3 4 1018.9 1018.2 0.0
30/12:00am 14.2 11.2 2.1 44 5.3 SE 7 9 4 5 1019.1 1018.4 0.0
 
Date/Time
EST
Temp
°C
App
Temp
°C
Dew
Point
°C
Rel
Hum
%
Delta-T
°C
Wind Press
QNH
hPa
Press
MSL
hPa
Rain since
9am
mm
Dir  Spd
km/h
Gust
km/h
Spd
kts
Gust
kts
29/11:30pm 14.2 11.3 2.8 46 5.1 SE 7 9 4 5 1019.1 1018.4 0.0
29/11:00pm 15.3 12.5 2.1 41 5.9 SE 6 7 3 4 1019.2 1018.5 0.0
29/10:30pm 16.5 14.3 3.2 41 6.1 SSE 4 6 2 3 1019.2 1018.5 0.0
29/10:00pm 16.8 13.9 1.7 36 6.8 SE 6 6 3 3 1019.1 1018.4 0.0
29/09:30pm 17.3 14.3 2.1 36 6.9 SE 7 7 4 4 1018.9 1018.2 0.0
29/09:00pm 18.9 15.7 0.5 29 8.2 SSE 7 9 4 5 1018.6 1017.9 0.0
29/08:30pm 20.6 16.9 -0.1 25 9.3 SSE 9 11 5 6 1018.4 1017.7 0.0
29/08:00pm 21.6 17.5 -0.4 23 9.8 SSE 11 11 6 6 1018.0 1017.3 0.0
29/07:30pm 23.5 19.2 -1.4 19 11.1 SSE 11 13 6 7 1017.5 1016.9 0.0
29/07:00pm 24.9 20.6 -1.8 17 12.0 SE 11 15 6 8 1017.1 1016.5 0.0
29/06:30pm 27.0 21.7 -3.7 13 13.5 SE 15 20 8 11 1016.6 1016.0 0.0
29/06:00pm 27.9 21.6 -4.1 12 14.1 SE 20 30 11 16 1016.1 1015.4 0.0
29/05:30pm 28.6 22.4 -4.7 11 14.6 SSE 19 28 10 15 1015.9 1015.2 0.0
29/05:00pm 28.9 22.5 -4.5 11 14.7 SE 20 30 11 16 1016.0 1015.3 0.0
29/04:30pm 29.3 23.0 -4.2 11 14.9 SSE 20 28 11 15 1015.8 1015.1 0.0
29/04:00pm 29.1 23.0 -4.3 11 14.8 SSE 19 30 10 16 1016.0 1015.3 0.0
29/03:30pm 29.2 23.2 -3.1 12 14.6 SE 19 33 10 18 1016.1 1015.4 0.0
29/03:00pm 29.0 23.7 -3.2 12 14.5 ESE 15 37 8 20 1016.4 1015.7 0.0
29/02:30pm 28.7 22.7 -1.4 14 14.0 SE 20 33 11 18 1016.8 1016.2 0.0
29/02:00pm 28.4 23.2 0.2 16 13.4 SE 17 28 9 15 1017.2 1016.6 0.0
29/01:30pm 27.8 22.5 -0.3 16 13.2 SE 17 26 9 14 1017.6 1017.0 0.0
29/01:00pm 27.9 22.4 0.6 17 13.1 ESE 19 39 10 21 1018.1 1017.4 0.0
29/12:30pm 27.0 21.5 0.7 18 12.5 SE 19 30 10 16 1018.7 1018.0 0.0
29/12:00pm 26.9 21.4 0.6 18 12.5 SE 19 30 10 16 1019.3 1018.6 0.0
29/11:30am 26.0 19.9 0.6 19 12.0 ESE 22 37 12 20 1019.3 1018.6 0.0
29/11:00am 25.5 19.6 1.6 21 11.4 ESE 22 33 12 18 1019.8 1019.1 0.0
29/10:30am 24.2 18.9 2.9 25 10.4 ESE 20 28 11 15 1020.2 1019.5 0.0
29/10:00am 23.5 18.4 2.9 26 10.0 ESE 19 28 10 15 1020.3 1019.6 0.0
29/09:30am 22.0 16.7 3.2 29 9.1 SE 20 28 11 15 1020.1 1019.4 0.0
29/09:00am 20.0 14.8 3.3 33 7.9 SE 20 26 11 14 1020.0 1019.3 0.2
29/08:30am 18.3 13.6 3.4 37 7.0 SE 17 24 9 13 1019.8 1019.1 0.2
29/08:00am 16.2 12.9 4.3 45 5.6 SE 11 15 6 8 1019.7 1019.0 0.2
29/07:30am 13.1 10.8 5.5 60 3.6 SE 7 9 4 5 1019.3 1018.6 0.2
29/07:00am 9.8 7.7 5.6 75 1.9 SE 6 6 3 3 1018.9 1018.2 0.2
29/06:30am 8.9 6.4 4.9 76 1.8 SE 7 7 4 4 1018.5 1017.8 0.2
29/06:00am 9.9 7.4 4.7 70 2.3 SSE 7 9 4 5 1018.2 1017.5 0.2
29/05:30am 10.0 7.8 5.2 72 2.2 SSE 6 7 3 4 1017.6 1017.0 0.2
29/05:00am 10.1 8.0 5.7 74 2.0 SE 6 7 3 4 1017.2 1016.6 0.2
29/04:30am 10.5 8.4 5.7 72 2.2 SE 6 7 3 4 1016.8 1016.2 0.2
29/04:00am 11.4 9.0 5.1 65 2.9 SE 7 9 4 5 1016.9 1016.3 0.2
29/03:30am 13.5 9.9 4.9 56 4.0 SSE 13 17 7 9 1016.9 1016.3 0.2
29/03:00am 13.3 10.3 5.9 61 3.5 SSE 11 15 6 8 1017.0 1016.4 0.2
29/02:30am 13.3 11.0 7.5 68 2.9 S 9 11 5 6 1017.1 1016.5 0.2
29/02:00am 13.2 11.1 8.1 71 2.5 SSE 9 11 5 6 1017.2 1016.6 0.2
29/01:30am 13.9 12.3 8.7 71 2.6 SSE 7 7 4 4 1017.4 1016.8 0.2
29/01:00am 13.7 12.3 9.7 77 2.1 SSE 7 7 4 4 1017.5 1016.9 0.2
29/12:30am 15.3 15.1 10.5 73 2.6 SSE 2 2 1 1 1017.6 1017.0 0.2
29/12:00am 15.4 15.0 11.2 76 2.3 SSE 4 6 2 3 1017.6 1017.0 0.2
 
Date/Time
EST
Temp
°C
App
Temp
°C
Dew
Point
°C
Rel
Hum
%
Delta-T
°C
Wind Press
QNH
hPa
Press
MSL
hPa
Rain since
9am
mm
Dir  Spd
km/h
Gust
km/h
Spd
kts
Gust
kts
28/11:30pm 16.4 15.9 10.7 69 3.1 SSE 4 4 2 2 1017.6 1017.0 0.2
28/11:00pm 16.4 15.8 10.5 68 3.2 S 4 4 2 2 1017.6 1017.0 0.2
28/10:30pm 17.5 16.6 9.4 59 4.3 S 4 4 2 2 1017.7 1017.1 0.2
28/10:00pm 17.8 16.4 8.9 56 4.6 S 6 7 3 4 1017.7 1017.1 0.2
28/09:30pm 18.2 16.5 8.5 53 5.0 S 7 7 4 4 1017.5 1016.9 0.2
28/09:00pm 18.8 16.9 9.0 53 5.2 S 9 9 5 5 1017.4 1016.8 0.2
28/08:30pm 19.6 18.2 9.5 52 5.4 S 7 9 4 5 1017.2 1016.6 0.2
28/08:00pm 20.5 19.1 9.4 49 5.9 S 7 7 4 4 1016.8 1016.2 0.2
28/07:30pm 21.4 19.9 9.3 46 6.5 SSE 7 7 4 4 1016.4 1015.7 0.2
28/07:00pm 22.6 20.9 8.3 40 7.6 SSE 7 9 4 5 1016.0 1015.3 0.2
28/06:30pm 24.5 22.0 8.0 35 8.8 S 11 15 6 8 1015.8 1015.1 0.2
28/06:00pm 25.2 22.7 8.2 34 9.2 SSE 11 17 6 9 1015.5 1014.8 0.2
28/05:30pm 25.4 23.2 9.3 36 8.9 S 11 19 6 10 1015.5 1014.8 0.2
28/05:00pm 25.4 24.3 10.8 40 8.2 SSW 7 13 4 7 1015.4 1014.7 0.2
28/04:30pm 25.5 24.9 10.5 39 8.4 SE 4 7 2 4 1015.4 1014.7 0.2
28/04:00pm 24.8 23.7 10.7 41 7.9 S 7 15 4 8 1015.3 1014.6 0.2
28/03:30pm 24.3 22.8 10.6 42 7.7 SSE 9 17 5 9 1015.6 1014.9 0.2
28/03:00pm 24.8 23.4 12.1 45 7.3 SSW 11 19 6 10 1015.9 1015.2 0.2
28/02:30pm 23.9 22.7 11.6 46 7.0 SSE 9 19 5 10 1016.4 1015.7 0.2
28/02:00pm 23.3 22.5 11.7 48 6.6 SE 7 15 4 8 1016.9 1016.3 0.2
28/01:30pm 23.0 21.4 11.7 49 6.4 SE 11 15 6 8 1017.1 1016.5 0.2
28/01:00pm 22.4 20.8 11.5 50 6.1 SSE 11 17 6 9 1017.6 1017.0 0.2
28/12:30pm 22.4 20.2 12.1 52 5.9 SE 15 24 8 13 1018.0 1017.3 0.2

Other formats

Comma delimited format used in spreadsheet applications
http://www.bom.gov.au/fwo/IDQ60801/IDQ60801.94344.axf

JavaScript Object Notation format (JSON) in row-major order
http://www.bom.gov.au/fwo/IDQ60801/IDQ60801.94344.json

Data quality

Most of these data are generated automatically and are frequently updated. Quality checks on data are not normally performed. It is possible for incorrect values to appear. Refer to information at About Latest Weather Observations and please check the disclaimer before using these data.